Terminal Aerodrome Forecast
Issued by NWS

Home | Current Version | Previous Version | Text Only | Print | Product List | Glossary On
Versions: 1 2 3 4 5 6 7 8 9 10 11 12 13 14 15 16 17
195
FTUS45 KABQ 170543 RRA
TAFGUP
TAF
KGUP 170543Z 1706/1806 01005KT P6SM VCSH SCT015 OVC040
      TEMPO 1706/1708 2SM -SN BR SCT009 BKN015
     FM170900 VRB03KT 3SM BR BKN010
     FM171300 VRB03KT 3/4SM BR OVC007
     FM171700 VRB03KT P6SM SCT030=

USA.gov is the U.S. government's official web portal to all federal, state and local government web resources and services.